METAR LOCAUX

2022/10/03 02:30 LFST 030230Z AUTO VRB02KT 3900 0700 R23/P2000 R05/1000D BCFG NSC 08/08 Q1026 TEMPO 0500 FG VV///
2022/10/03 02:20 EDSB 030220Z AUTO 32001KT 2800 FEW002/// SCT029/// OVC035/// 08/08 Q1030
2022/10/03 02:30 LFGA 030230Z AUTO 04003KT 9999 BKN006 BKN040 12/12 Q1026
www.noaa.gov

Ne pas utiliser pour préparer ou effectuer un vol: Utilisez la documentation officielle disponible sur aviation.meteo.fr (Aéroweb)


"Le soleil du matin ne dure pas forcément toute la journée."

Animation satellite IR

Meteociel.fr

"Derrière chaque nuage se cache le ciel bleu."

Radar pluie

Infoclimat.fr

"Si tu veux l’arc-en-ciel, tu dois supporter la pluie."
Dolly Parton

Nébulosité (octas)

Meteociel.fr

"Le soleil est souvent obscurci par les nuages et la raison par les passions."
Démophile

Impacts de foudre

www.meteo60.fr

"Celui que frappe la foudre n'entend pas le tonnerre."

Vigilance météo

vigilance-meteo.fr

"Tout nuage n'enfante pas une tempête."
William Shakespeare

TAF locaux

2022/10/03 01:37 TAF AMD LFST 030131Z 0301/0324 35004KT 9999 FEW025 BKN040 TEMPO 0301/0309 3000 BR BKN002 PROB30 TEMPO 0301/0309 0500 FG VV///
2022/10/02 22:32 TAF AMD EDSB 022222Z 0222/0318 VRB03KT 9999 SCT005 BKN015 TEMPO 0222/0309 3500 BR PROB30 TEMPO 0222/0308 0300 FG OVC002 BECMG 0309/0312 36005KT
www.noaa.gov

Ne pas utiliser pour préparer ou effectuer un vol: Utilisez la documentation officielle disponible sur aviation.meteo.fr (Aéroweb)


"Les jours où le ciel est gris, le soleil n'a pas disparu à tout jamais."
Arnaud Desjardins

Prévisions 7 jours


Meteoblue.com

"Quand les crapauds chantent, le beau temps s'avance !"